Time;durP1;ratioP1;P1;durP2;ratioP2;P2;SDS_P1;SDS_P2;PMS_P1;PMS_P2;Temp;Humidity;BMP_temperature;BMP_pressure;BME280_temperature;BME280_humidity;BME280_pressure;Samples;Min_cycle;Max_cycle;Signal;HPM_P1;HPM_P2
2022/07/15 00:00:18;;;;;;;16.90;15.30;;;;;;;17.47;89.61;97622.77;105088;1287;22686;-83
2022/07/15 00:03:02;;;;;;;11.10;10.00;;;;;;;17.45;89.55;97627.41;104883;1288;25251;-83
2022/07/15 00:05:31;;;;;;;10.50;9.60;;;;;;;17.49;89.88;97625.39;104908;1287;22615;-84
2022/07/15 00:08:00;;;;;;;10.30;7.80;;;;;;;17.61;89.98;97624.60;104979;1287;22597;-84
2022/07/15 00:10:29;;;;;;;9.00;8.10;;;;;;;17.63;89.31;97636.11;104983;1286;22791;-84
2022/07/15 00:12:59;;;;;;;12.50;11.40;;;;;;;17.59;89.20;97637.70;105038;1288;24238;-84
2022/07/15 00:15:29;;;;;;;16.30;14.70;;;;;;;17.50;89.11;97663.80;105077;1287;25376;-84
2022/07/15 00:18:01;;;;;;;10.70;9.60;;;;;;;17.46;89.40;97655.91;104836;1288;25376;-85
2022/07/15 00:20:33;;;;;;;9.40;8.50;;;;;;;17.49;89.72;97649.82;104990;1287;25322;-84
2022/07/15 00:23:06;;;;;;;9.90;7.80;;;;;;;17.52;89.90;97654.34;104991;1287;22572;-83
2022/07/15 00:25:34;;;;;;;9.50;6.90;;;;;;;17.48;89.61;97654.09;104956;1288;22565;-84
2022/07/15 00:28:07;;;;;;;7.10;6.40;;;;;;;17.41;89.55;97647.69;105068;1287;22585;-83
2022/07/15 00:30:40;;;;;;;6.50;5.60;;;;;;;17.34;89.85;97649.67;105084;1287;23946;-84
2022/07/15 00:33:09;;;;;;;8.70;6.60;;;;;;;17.29;89.93;97649.14;105152;1287;23220;-83
2022/07/15 00:35:39;;;;;;;7.50;6.50;;;;;;;17.25;90.25;97646.79;104981;1288;22588;-83
2022/07/15 00:38:09;;;;;;;8.10;7.30;;;;;;;17.23;90.66;97636.23;105003;1287;22673;-83
2022/07/15 00:40:45;;;;;;;7.30;6.60;;;;;;;17.20;91.33;97629.85;105034;1287;22776;-83
2022/07/15 00:43:16;;;;;;;8.50;6.80;;;;;;;17.35;91.36;97632.13;105065;1287;25375;-83
2022/07/15 00:45:45;;;;;;;7.30;6.60;;;;;;;17.40;90.74;97630.76;105023;1287;25410;-84
2022/07/15 00:48:13;;;;;;;6.70;5.40;;;;;;;17.33;90.41;97624.58;104888;1288;25314;-83
2022/07/15 00:50:47;;;;;;;7.30;6.10;;;;;;;17.38;90.71;97622.86;105132;1287;24261;-83
2022/07/15 00:53:20;;;;;;;8.10;5.70;;;;;;;17.40;90.98;97622.21;104957;1288;22636;-83
2022/07/15 00:55:53;;;;;;;9.70;7.60;;;;;;;17.43;91.03;97626.46;104898;1288;22725;-83
2022/07/15 00:58:25;;;;;;;6.40;5.70;;;;;;;17.37;90.57;97625.79;105081;1287;24256;-83
2022/07/15 01:00:56;;;;;;;7.70;6.60;;;;;;;17.35;90.86;97623.39;105227;1287;24381;-84
2022/07/15 01:03:26;;;;;;;9.60;7.30;;;;;;;17.28;91.34;97619.73;105105;1287;25642;-84
2022/07/15 01:05:54;;;;;;;8.70;6.90;;;;;;;17.20;91.22;97619.05;105185;1287;26672;-83
2022/07/15 01:08:23;;;;;;;7.60;6.80;;;;;;;17.26;91.19;97613.98;105154;1287;23318;-85
2022/07/15 01:10:52;;;;;;;7.80;7.00;;;;;;;17.24;91.57;97617.98;104920;1288;22589;-82
2022/07/15 01:13:21;;;;;;;11.10;7.70;;;;;;;17.17;91.91;97618.52;105115;1287;25265;-83
2022/07/15 01:15:50;;;;;;;11.80;7.90;;;;;;;17.14;91.71;97620.92;105064;1287;22566;-83
2022/07/15 01:18:19;;;;;;;10.90;6.90;;;;;;;17.12;92.09;97622.02;104956;1288;22646;-83
2022/07/15 01:20:47;;;;;;;9.50;7.10;;;;;;;17.11;91.94;97620.05;105222;1287;22695;-83
2022/07/15 01:23:17;;;;;;;8.40;7.50;;;;;;;17.20;91.94;97620.30;105289;1287;25441;-83
2022/07/15 01:26:05;;;;;;;9.30;8.40;;;;;;;17.24;91.54;97617.05;104586;1288;24299;-82
2022/07/15 01:28:34;;;;;;;10.70;8.50;;;;;;;17.20;91.50;97613.61;104946;1287;22722;-83
2022/07/15 01:31:03;;;;;;;9.80;8.00;;;;;;;17.19;91.75;97613.04;105216;1287;25369;-83
2022/07/15 01:33:33;;;;;;;9.10;8.20;;;;;;;17.16;91.74;97611.72;105215;1287;25375;-83
2022/07/15 01:36:01;;;;;;;8.90;8.00;;;;;;;17.16;91.99;97612.04;104953;1288;22547;-83
2022/07/15 01:38:31;;;;;;;9.20;7.20;;;;;;;17.17;91.59;97614.14;105212;1288;22590;-83
2022/07/15 01:41:03;;;;;;;9.00;7.50;;;;;;;17.16;91.77;97612.96;105205;1287;22570;-82
2022/07/15 01:43:31;;;;;;;11.90;7.30;;;;;;;17.21;91.60;97610.67;105225;1287;22709;-82
2022/07/15 01:45:59;;;;;;;10.10;7.90;;;;;;;17.28;91.63;97614.59;105225;1288;22572;-82
2022/07/15 01:51:39;;;;;;;9.80;7.90;;;;;;;17.09;91.74;97615.72;105200;1287;22776;-82
2022/07/15 01:54:07;;;;;;;9.80;8.20;;;;;;;17.04;92.13;97622.42;105001;1287;247908;-83
2022/07/15 01:56:36;;;;;;;12.30;7.60;;;;;;;16.98;92.08;97621.17;104913;1289;22569;-82
2022/07/15 01:59:04;;;;;;;8.70;7.70;;;;;;;16.94;92.33;97616.70;105249;1284;22560;-84
2022/07/15 02:01:33;;;;;;;9.00;7.80;;;;;;;16.87;92.35;97617.85;105230;1287;22585;-82
2022/07/15 02:04:06;;;;;;;9.90;8.80;;;;;;;16.80;93.04;97622.00;105187;1287;25363;-83
2022/07/15 02:06:35;;;;;;;10.00;8.00;;;;;;;16.74;92.75;97619.55;105163;1287;25292;-84
2022/07/15 02:09:03;;;;;;;9.30;7.80;;;;;;;16.74;92.47;97624.76;104995;1288;22584;-85
2022/07/15 02:11:34;;;;;;;8.00;7.20;;;;;;;16.73;92.61;97630.57;105041;1287;25388;-84
2022/07/15 02:14:02;;;;;;;11.10;8.10;;;;;;;16.68;93.55;97632.06;105075;1287;22554;-83
2022/07/15 02:16:33;;;;;;;9.20;7.50;;;;;;;16.57;93.20;97632.99;105136;1287;22572;-83
2022/07/15 02:19:03;;;;;;;11.20;7.50;;;;;;;16.51;93.84;97640.66;105148;1287;22701;-83
2022/07/15 02:21:31;;;;;;;11.20;7.30;;;;;;;16.46;93.55;97643.76;105149;1287;24429;-83
2022/07/15 02:24:01;;;;;;;8.80;7.90;;;;;;;16.43;93.58;97644.16;105213;1287;22547;-84
2022/07/15 02:26:29;;;;;;;10.20;7.30;;;;;;;16.46;93.48;97648.28;105118;1287;23287;-83
2022/07/15 02:28:58;;;;;;;11.60;7.90;;;;;;;16.45;93.48;97649.81;105002;1288;23942;-83
2022/07/15 02:31:28;;;;;;;10.10;8.10;;;;;;;16.47;93.80;97653.89;105213;1287;22554;-83
2022/07/15 02:33:57;;;;;;;9.60;8.50;;;;;;;16.49;93.91;97654.11;105204;1287;22612;-84
2022/07/15 02:36:28;;;;;;;9.80;8.40;;;;;;;16.49;94.03;97657.92;104987;1288;23541;-84
2022/07/15 02:38:56;;;;;;;8.60;7.70;;;;;;;16.48;94.65;97654.93;105258;1287;25851;-84
2022/07/15 02:41:25;;;;;;;10.20;8.90;;;;;;;16.45;94.44;97656.88;104952;1288;22572;-84
2022/07/15 02:43:53;;;;;;;9.90;8.90;;;;;;;16.42;94.50;97662.13;105278;1287;25461;-84
2022/07/15 02:46:22;;;;;;;14.00;9.70;;;;;;;16.39;95.48;97665.23;104953;1287;23396;-83
2022/07/15 02:48:50;;;;;;;11.40;10.10;;;;;;;16.33;95.10;97661.50;104915;1288;22710;-84
2022/07/15 02:51:19;;;;;;;11.00;9.80;;;;;;;16.30;94.74;97665.30;105198;1286;25371;-84
2022/07/15 02:53:47;;;;;;;12.00;10.80;;;;;;;16.31;95.18;97666.13;105156;1287;23883;-82
2022/07/15 02:56:18;;;;;;;14.00;12.50;;;;;;;16.31;95.02;97672.80;105220;1287;22615;-83
2022/07/15 02:58:46;;;;;;;15.80;14.20;;;;;;;16.32;95.43;97672.79;104917;1287;22652;-83
2022/07/15 03:01:15;;;;;;;15.90;14.40;;;;;;;16.29;95.40;97672.54;105260;1287;25383;-83
2022/07/15 03:03:45;;;;;;;16.60;15.10;;;;;;;16.26;96.08;97677.58;104868;1289;22736;-83
2022/07/15 03:06:18;;;;;;;18.60;16.90;;;;;;;16.24;95.96;97676.42;105166;1288;25418;-84
2022/07/15 03:08:46;;;;;;;16.50;14.80;;;;;;;16.22;96.30;97681.74;104828;1288;22567;-83
2022/07/15 03:11:15;;;;;;;15.70;14.20;;;;;;;16.19;95.95;97685.92;105161;1287;22684;-83
2022/07/15 03:13:44;;;;;;;16.30;14.60;;;;;;;16.16;96.15;97688.67;105159;1288;25055;-84
2022/07/15 03:16:13;;;;;;;15.10;13.70;;;;;;;16.13;96.17;97689.23;105167;1288;22685;-83
2022/07/15 03:18:44;;;;;;;14.70;13.20;;;;;;;16.10;95.80;97689.45;105436;1287;22572;-83
2022/07/15 03:21:12;;;;;;;15.70;14.20;;;;;;;16.16;95.96;97696.67;105494;1287;25342;-84
2022/07/15 03:23:41;;;;;;;16.20;14.70;;;;;;;16.16;95.99;97696.77;105050;1288;22704;-84
2022/07/15 03:26:08;;;;;;;14.90;13.20;;;;;;;16.21;95.86;97695.90;105341;1287;25637;-82
2022/07/15 03:28:36;;;;;;;16.50;13.60;;;;;;;16.23;95.32;97698.15;105222;1287;22654;-83
2022/07/15 03:31:06;;;;;;;15.50;14.00;;;;;;;16.23;95.07;97697.54;104906;1288;22583;-83
2022/07/15 03:33:35;;;;;;;14.40;13.00;;;;;;;16.24;95.15;97696.10;104965;1288;22563;-83
2022/07/15 03:36:05;;;;;;;15.50;14.10;;;;;;;16.25;95.11;97701.25;104993;1287;22567;-83
2022/07/15 03:38:34;;;;;;;17.10;14.50;;;;;;;16.26;94.95;97704.36;104896;1288;22563;-83
2022/07/15 03:41:02;;;;;;;20.10;17.70;;;;;;;16.31;94.88;97709.20;105236;1287;22574;-83
2022/07/15 03:43:30;;;;;;;20.70;17.00;;;;;;;16.28;94.60;97718.35;104859;1288;22537;-83
2022/07/15 03:45:58;;;;;;;17.20;14.40;;;;;;;16.23;94.58;97725.95;105234;1287;22704;-83
2022/07/15 03:48:30;;;;;;;16.80;14.90;;;;;;;16.15;95.04;97739.00;104985;1287;25373;-82
2022/07/15 03:50:58;;;;;;;15.30;13.80;;;;;;;16.07;95.21;97755.89;105203;1287;22544;-82
2022/07/15 03:53:26;;;;;;;16.50;14.10;;;;;;;16.00;95.85;97755.81;104904;1289;22730;-82
2022/07/15 03:55:54;;;;;;;13.50;12.10;;;;;;;15.92;95.50;97747.86;105108;1288;22705;-81
2022/07/15 03:58:22;;;;;;;14.50;13.00;;;;;;;15.89;95.83;97747.07;105120;1287;23736;-83
2022/07/15 04:00:50;;;;;;;13.10;11.70;;;;;;;15.84;96.01;97758.77;105250;1287;22714;-82
2022/07/15 04:03:18;;;;;;;13.00;11.70;;;;;;;15.80;96.37;97768.17;105261;1287;25524;-82
2022/07/15 04:05:46;;;;;;;13.20;11.80;;;;;;;15.75;96.36;97758.00;105209;1287;25462;-82
2022/07/15 04:08:17;;;;;;;12.00;10.90;;;;;;;15.73;96.25;97763.13;105228;1287;22691;-82
2022/07/15 04:10:46;;;;;;;13.20;10.50;;;;;;;15.71;96.37;97770.58;105178;1287;22562;-83
2022/07/15 04:13:18;;;;;;;13.30;11.00;;;;;;;15.68;96.65;97781.19;105197;1287;25437;-83
2022/07/15 04:15:46;;;;;;;13.10;10.20;;;;;;;15.60;96.64;97778.73;105174;1287;22689;-81
2022/07/15 04:18:14;;;;;;;13.90;10.00;;;;;;;15.57;96.72;97786.21;105209;1287;24315;-81
2022/07/15 04:20:42;;;;;;;12.30;10.50;;;;;;;15.51;97.16;97785.30;105291;1287;22807;-81
2022/07/15 04:23:10;;;;;;;13.50;9.90;;;;;;;15.46;96.87;97792.10;105199;1287;25453;-83
2022/07/15 04:25:39;;;;;;;16.40;9.40;;;;;;;15.36;96.74;97792.04;104969;1288;25418;-83
2022/07/15 04:28:08;;;;;;;13.50;8.60;;;;;;;15.29;96.70;97791.88;105152;1288;25402;-84
2022/07/15 04:30:36;;;;;;;14.00;8.60;;;;;;;15.20;96.76;97801.50;105325;1287;24147;-84
2022/07/15 04:33:04;;;;;;;10.10;8.20;;;;;;;15.12;96.72;97802.86;105518;1287;22505;-85
2022/07/15 04:35:32;;;;;;;11.60;9.00;;;;;;;15.06;96.72;97807.59;105611;1288;23424;-83
2022/07/15 04:38:04;;;;;;;11.30;8.80;;;;;;;15.01;96.51;97816.83;105488;1287;24029;-83
2022/07/15 04:40:33;;;;;;;13.00;9.30;;;;;;;14.97;96.67;97820.84;106385;1287;23873;-83
2022/07/15 04:43:03;;;;;;;16.70;9.30;;;;;;;14.97;96.42;97828.45;106527;1287;22542;-84
2022/07/15 04:45:32;;;;;;;11.40;8.10;;;;;;;14.93;96.18;97830.15;106478;1287;22583;-84
2022/07/15 04:48:00;;;;;;;10.40;8.60;;;;;;;14.98;96.14;97830.84;105798;1287;25327;-84
2022/07/15 04:50:46;;;;;;;11.60;9.70;;;;;;;15.05;95.72;97833.78;105190;1287;22626;-84
2022/07/15 04:53:14;;;;;;;14.20;9.80;;;;;;;15.06;95.71;97832.97;105033;1288;25366;-84
2022/07/15 04:55:46;;;;;;;13.40;9.20;;;;;;;15.10;95.25;97834.90;105305;1287;22876;-84
2022/07/15 04:58:14;;;;;;;12.90;8.90;;;;;;;15.13;95.23;97839.84;104931;1288;25502;-84
2022/07/15 05:00:45;;;;;;;14.00;9.20;;;;;;;15.19;95.44;97844.00;105037;1288;25203;-83
2022/07/15 05:03:14;;;;;;;12.30;8.40;;;;;;;15.29;94.93;97849.27;105221;1287;25371;-84
2022/07/15 05:05:43;;;;;;;12.30;9.10;;;;;;;15.29;94.15;97851.21;105287;1287;25259;-84
2022/07/15 05:08:13;;;;;;;18.00;9.70;;;;;;;15.29;93.85;97854.52;105052;1288;25529;-83
2022/07/15 05:10:45;;;;;;;12.30;8.30;;;;;;;15.34;94.14;97852.71;105175;1288;23312;-84
2022/07/15 05:13:13;;;;;;;12.70;7.80;;;;;;;15.43;92.80;97854.39;105097;1287;25479;-84
2022/07/15 05:15:41;;;;;;;14.70;8.30;;;;;;;15.43;92.32;97858.09;104966;1287;23426;-84
2022/07/15 05:18:14;;;;;;;18.80;9.00;;;;;;;15.52;92.40;97860.80;104930;1288;25455;-82
2022/07/15 05:20:43;;;;;;;11.90;8.20;;;;;;;15.56;92.09;97866.43;104939;1288;25222;-83
2022/07/15 05:23:16;;;;;;;14.60;8.00;;;;;;;15.62;91.44;97867.70;105125;1287;22620;-83
2022/07/15 05:25:49;;;;;;;14.50;7.30;;;;;;;15.68;91.50;97875.09;105211;1287;22616;-83
2022/07/15 05:28:17;;;;;;;23.40;7.50;;;;;;;15.76;90.52;97873.77;104969;1287;24431;-83
2022/07/15 05:30:48;;;;;;;15.00;7.30;;;;;;;15.86;90.81;97874.83;105141;1287;22645;-82
2022/07/15 05:33:17;;;;;;;12.60;6.80;;;;;;;15.94;89.04;97881.61;105256;1287;22570;-82
2022/07/15 05:35:45;;;;;;;15.40;7.40;;;;;;;15.94;88.95;97886.88;105221;1287;22584;-82
2022/07/15 05:38:21;;;;;;;14.70;7.70;;;;;;;16.00;88.64;97886.95;104985;1288;22569;-82
2022/07/15 05:40:50;;;;;;;17.50;7.20;;;;;;;16.06;88.14;97894.25;105267;1287;25383;-82
2022/07/15 05:43:18;;;;;;;17.20;7.60;;;;;;;16.14;88.26;97894.80;105218;1287;24432;-83
2022/07/15 05:45:46;;;;;;;13.80;7.00;;;;;;;16.25;88.62;97898.92;105189;1287;22570;-81
2022/07/15 05:48:14;;;;;;;15.20;7.60;;;;;;;16.38;88.34;97901.77;105141;1287;24297;-83
2022/07/15 05:50:45;;;;;;;11.30;6.20;;;;;;;16.47;87.22;97906.27;104935;1288;22614;-82
2022/07/15 05:53:14;;;;;;;14.70;6.10;;;;;;;16.57;87.93;97900.96;104975;1287;24280;-82
2022/07/15 05:55:43;;;;;;;17.90;6.50;;;;;;;16.71;86.96;97905.61;105069;1287;22785;-82
2022/07/15 05:58:14;;;;;;;14.00;6.60;;;;;;;16.76;86.42;97909.76;104985;1287;25427;-82
2022/07/15 06:00:43;;;;;;;12.10;6.30;;;;;;;16.91;86.06;97912.49;104970;1287;25484;-81
2022/07/15 06:03:11;;;;;;;9.80;5.30;;;;;;;16.93;84.05;97915.90;104917;1287;23220;-82
2022/07/15 06:05:43;;;;;;;12.50;5.30;;;;;;;16.95;84.28;97915.43;105079;1287;25430;-83
2022/07/15 06:08:11;;;;;;;13.50;5.00;;;;;;;17.03;83.96;97915.77;104959;1288;22540;-82
2022/07/15 06:10:42;;;;;;;14.90;5.70;;;;;;;17.12;83.76;97917.30;104997;1287;24306;-82
2022/07/15 06:13:10;;;;;;;11.90;5.00;;;;;;;17.11;82.21;97923.73;105231;1287;24255;-82
2022/07/15 06:15:38;;;;;;;10.70;5.40;;;;;;;17.09;80.45;97925.81;105248;1288;22809;-82
2022/07/15 06:18:09;;;;;;;10.20;5.00;;;;;;;17.08;80.16;97929.29;105101;1287;22673;-82
2022/07/15 06:20:37;;;;;;;11.40;5.10;;;;;;;17.05;77.52;97937.46;105086;1287;22588;-82
2022/07/15 06:23:05;;;;;;;11.80;5.80;;;;;;;17.05;78.82;97938.00;104904;1288;22614;-82
2022/07/15 06:25:35;;;;;;;11.80;6.60;;;;;;;17.15;78.68;97938.16;105249;1287;22559;-82
2022/07/15 06:28:03;;;;;;;11.30;6.50;;;;;;;17.23;78.35;97944.55;105190;1287;22686;-83
2022/07/15 06:30:31;;;;;;;12.80;8.90;;;;;;;17.31;78.03;97940.84;104847;1288;23385;-83
2022/07/15 06:32:59;;;;;;;13.50;7.30;;;;;;;17.34;76.38;97951.90;104965;1287;22623;-82
2022/07/15 06:35:28;;;;;;;14.70;7.10;;;;;;;17.35;74.21;97958.91;105026;1287;22777;-83
2022/07/15 06:37:56;;;;;;;10.80;4.40;;;;;;;17.37;73.81;97964.30;105068;1287;22572;-82
2022/07/15 06:40:24;;;;;;;8.20;4.30;;;;;;;17.29;72.82;97966.74;105053;1287;25305;-83
2022/07/15 06:42:52;;;;;;;9.40;4.70;;;;;;;17.22;73.19;97963.36;105016;1287;23490;-83
2022/07/15 06:45:26;;;;;;;7.70;4.30;;;;;;;17.24;74.08;97966.37;105106;1287;25414;-82
2022/07/15 06:47:55;;;;;;;8.60;3.80;;;;;;;17.31;73.76;97967.13;105204;1287;22725;-81
2022/07/15 06:50:26;;;;;;;8.30;3.40;;;;;;;17.39;73.50;97975.97;104992;1287;25555;-83
2022/07/15 06:52:54;;;;;;;5.70;3.40;;;;;;;17.42;70.67;97976.44;105195;1287;23096;-83
2022/07/15 06:55:22;;;;;;;12.10;4.10;;;;;;;17.37;70.45;97982.88;105189;1287;24469;-82
2022/07/15 06:57:50;;;;;;;7.40;3.80;;;;;;;17.37;70.14;97982.56;105109;1288;24103;-83
2022/07/15 07:00:18;;;;;;;8.60;4.10;;;;;;;17.43;70.04;97981.74;105669;1287;22744;-82
2022/07/15 07:02:46;;;;;;;10.20;4.90;;;;;;;17.48;69.91;97985.16;104959;1287;23233;-82
2022/07/15 07:05:16;;;;;;;10.00;4.60;;;;;;;17.54;69.90;97979.52;105230;1287;22547;-82
2022/07/15 07:07:45;;;;;;;9.30;4.00;;;;;;;17.65;70.64;97983.45;105240;1287;25582;-82
2022/07/15 07:10:13;;;;;;;10.20;4.10;;;;;;;17.80;70.49;97982.98;105337;1288;22729;-85
2022/07/15 07:12:41;;;;;;;11.10;5.30;;;;;;;17.85;69.66;97989.73;105031;1287;23958;-82
2022/07/15 07:15:09;;;;;;;8.20;4.80;;;;;;;17.81;69.63;97989.85;105560;1287;25368;-82
2022/07/15 07:17:37;;;;;;;8.50;4.00;;;;;;;17.71;69.54;97989.45;105458;1287;22584;-83
2022/07/15 07:20:06;;;;;;;8.20;3.50;;;;;;;17.68;66.78;97993.80;105317;1287;22716;-83
2022/07/15 07:22:35;;;;;;;8.40;2.90;;;;;;;17.61;62.47;97995.68;105121;1288;22727;-82
2022/07/15 07:25:04;;;;;;;6.50;3.10;;;;;;;17.52;62.31;98001.10;105340;1287;22888;-82
2022/07/15 07:27:32;;;;;;;5.50;3.00;;;;;;;17.49;61.36;98004.60;105186;1287;23965;-82
2022/07/15 07:30:04;;;;;;;7.60;3.40;;;;;;;17.55;63.47;98008.66;105383;1288;25340;-82
2022/07/15 07:32:32;;;;;;;6.30;3.60;;;;;;;17.71;63.27;98008.46;105335;1288;22704;-83
2022/07/15 07:35:07;;;;;;;7.00;3.90;;;;;;;17.77;61.94;98009.90;105415;1287;24266;-81
2022/07/15 07:37:37;;;;;;;8.60;4.00;;;;;;;17.82;62.19;98010.91;105197;1288;24378;-83
2022/07/15 07:40:08;;;;;;;8.80;4.30;;;;;;;17.87;62.27;98012.08;105251;1289;22691;-83
2022/07/15 07:42:36;;;;;;;8.30;3.80;;;;;;;17.95;62.04;98012.56;105216;1287;22558;-84
2022/07/15 07:45:05;;;;;;;7.50;3.50;;;;;;;17.99;61.28;98013.77;105212;1288;24258;-84
2022/07/15 07:47:40;;;;;;;9.00;3.70;;;;;;;18.01;62.14;98014.98;105308;1287;22563;-84
2022/07/15 07:50:09;;;;;;;6.60;3.80;;;;;;;18.11;60.63;98012.31;105256;1287;24111;-83
2022/07/15 07:52:37;;;;;;;7.60;3.80;;;;;;;18.09;58.70;98020.66;105136;1288;24374;-82
2022/07/15 07:55:06;;;;;;;9.90;5.10;;;;;;;18.13;60.44;98021.51;105285;1288;22655;-83
2022/07/15 07:57:35;;;;;;;10.30;4.70;;;;;;;18.24;59.50;98020.63;105270;1287;22646;-84
2022/07/15 08:00:03;;;;;;;6.70;3.80;;;;;;;18.35;59.93;98021.98;105145;1289;22880;-84
2022/07/15 08:02:38;;;;;;;9.10;4.50;;;;;;;18.44;59.18;98028.37;105283;1288;25374;-83
2022/07/15 08:05:08;;;;;;;10.70;4.60;;;;;;;18.59;59.62;98030.74;105238;1287;22544;-83
2022/07/15 08:07:36;;;;;;;7.70;4.30;;;;;;;18.68;58.39;98029.24;105302;1288;25402;-85
2022/07/15 08:10:05;;;;;;;12.60;5.50;;;;;;;18.69;58.25;98025.70;104990;1288;22877;-82
2022/07/15 08:12:33;;;;;;;11.70;5.00;;;;;;;18.49;58.52;98037.45;105078;1288;22715;-83
2022/07/15 08:15:03;;;;;;;8.50;4.80;;;;;;;18.28;59.45;98035.94;105261;1287;26643;-83
2022/07/15 08:17:31;;;;;;;8.10;4.20;;;;;;;18.26;60.01;98037.52;105305;1287;22665;-83
2022/07/15 08:19:59;;;;;;;12.20;5.20;;;;;;;18.44;59.71;98035.62;105320;1287;22615;-83
2022/07/15 08:22:27;;;;;;;10.40;5.20;;;;;;;18.55;59.89;98042.02;105220;1287;22567;-83
2022/07/15 08:24:55;;;;;;;12.60;5.60;;;;;;;18.37;60.05;98048.34;105276;1287;22640;-82
2022/07/15 08:27:23;;;;;;;10.60;4.70;;;;;;;18.27;60.74;98046.45;105291;1287;22742;-83
2022/07/15 08:29:51;;;;;;;7.90;4.70;;;;;;;18.32;60.64;98054.78;105342;1287;25662;-83
2022/07/15 08:32:19;;;;;;;6.60;3.80;;;;;;;18.33;60.00;98052.36;105068;1288;25336;-82
2022/07/15 08:34:47;;;;;;;8.20;3.80;;;;;;;18.32;59.22;98063.58;105225;1287;22563;-82
2022/07/15 08:37:16;;;;;;;6.30;3.60;;;;;;;18.38;58.68;98061.56;105236;1287;25569;-82
2022/07/15 08:39:44;;;;;;;5.30;3.20;;;;;;;18.48;58.15;98072.45;105153;1287;25361;-82
2022/07/15 08:42:13;;;;;;;8.20;3.60;;;;;;;18.58;58.78;98062.68;105367;1287;22581;-83
2022/07/15 08:44:42;;;;;;;6.50;3.10;;;;;;;18.69;58.16;98061.71;104980;1287;22669;-83
2022/07/15 08:47:10;;;;;;;8.00;2.60;;;;;;;18.52;57.21;98062.84;105388;1287;22724;-83
2022/07/15 08:49:58;;;;;;;5.90;2.20;;;;;;;18.29;57.00;98068.79;105353;1287;24112;-83
2022/07/15 08:52:27;;;;;;;5.20;2.60;;;;;;;18.23;56.85;98075.30;104997;1288;23219;-82
2022/07/15 08:54:54;;;;;;;7.20;2.40;;;;;;;18.31;56.89;98074.31;105283;1287;25375;-83
2022/07/15 08:57:22;;;;;;;4.10;2.50;;;;;;;18.44;56.70;98075.23;105350;1287;22577;-84
2022/07/15 08:59:54;;;;;;;3.70;2.60;;;;;;;18.49;56.39;98084.39;105382;1287;22557;-82
2022/07/15 09:02:22;;;;;;;4.90;2.60;;;;;;;18.36;55.47;98078.59;105331;1287;22708;-84
2022/07/15 09:05:21;;;;;;;7.70;3.30;;;;;;;18.40;55.99;98070.83;105030;1289;24385;-83
2022/07/15 09:08:04;;;;;;;7.60;3.80;;;;;;;18.63;56.09;98069.20;105324;1287;22759;-85
2022/07/15 09:10:49;;;;;;;7.20;3.00;;;;;;;18.85;55.67;98069.23;105307;1287;23405;-85
2022/07/15 09:13:35;;;;;;;4.60;2.20;;;;;;;18.99;55.15;98076.62;105351;1287;22541;-83
2022/07/15 09:16:21;;;;;;;4.60;2.20;;;;;;;19.06;54.21;98079.54;105338;1287;22658;-84
2022/07/15 09:18:50;;;;;;;10.40;2.40;;;;;;;18.87;53.75;98083.31;104876;1287;22587;-85
2022/07/15 09:21:22;;;;;;;5.80;2.30;;;;;;;18.78;53.64;98085.24;105339;1287;25316;-84
2022/07/15 09:23:51;;;;;;;9.70;2.50;;;;;;;18.74;53.91;98081.23;105172;1287;25377;-85
2022/07/15 09:26:36;;;;;;;5.20;2.40;;;;;;;18.78;53.94;98079.56;105082;1287;22563;-85
2022/07/15 09:33:34;;;;;;;7.10;2.40;;;;;;;18.71;53.16;98085.36;105051;1287;22662;-84
2022/07/15 09:37:59;;;;;;;7.10;2.50;;;;;;;19.10;52.64;98081.56;105321;1287;24440;-83
2022/07/15 09:40:28;;;;;;;4.90;2.40;;;;;;;19.19;50.69;98084.08;105039;1287;22715;-83
2022/07/15 09:43:05;;;;;;;4.40;2.10;;;;;;;19.11;51.41;98079.80;105038;1287;22575;-83
2022/07/15 09:45:33;;;;;;;10.40;2.80;;;;;;;18.85;51.37;98080.52;105238;1287;22624;-83
2022/07/15 09:48:09;;;;;;;4.90;2.30;;;;;;;18.65;52.04;98077.45;105246;1287;22633;-83
2022/07/15 09:50:38;;;;;;;7.00;2.60;;;;;;;18.63;52.73;98080.90;105031;1288;22570;-82
2022/07/15 09:53:14;;;;;;;5.90;2.60;;;;;;;18.89;53.28;98076.18;105407;1287;22690;-82
2022/07/15 09:55:42;;;;;;;6.30;3.10;;;;;;;19.18;52.46;98076.17;105415;1287;22575;-84
2022/07/15 09:58:10;;;;;;;4.40;2.30;;;;;;;19.28;52.31;98075.41;105290;1287;22744;-82
2022/07/15 10:00:38;;;;;;;9.30;2.80;;;;;;;19.28;51.96;98077.51;105280;1287;22559;-83
2022/07/15 10:03:06;;;;;;;4.10;2.50;;;;;;;19.27;52.32;98075.94;105021;1287;25374;-84
2022/07/15 10:05:35;;;;;;;4.90;2.60;;;;;;;19.47;52.31;98071.21;105343;1287;22549;-83
2022/07/15 10:08:04;;;;;;;5.00;2.90;;;;;;;19.59;51.15;98070.14;105111;1287;24376;-83
2022/07/15 10:10:32;;;;;;;6.20;2.50;;;;;;;19.42;50.70;98071.45;105065;1288;23369;-82
2022/07/15 10:13:28;;;;;;;7.80;2.70;;;;;;;19.13;51.13;98079.95;105004;1288;22597;-82
2022/07/15 10:16:19;;;;;;;7.70;2.90;;;;;;;19.01;51.23;98073.16;105304;1287;25360;-82
2022/07/15 10:19:09;;;;;;;6.00;2.30;;;;;;;19.06;52.18;98073.62;105342;1287;25525;-82
2022/07/15 10:21:59;;;;;;;8.00;2.80;;;;;;;19.11;51.77;98072.39;105400;1287;24238;-82
2022/07/15 10:24:49;;;;;;;7.90;3.40;;;;;;;19.37;51.43;98074.70;105322;1287;22701;-82
2022/07/15 10:27:26;;;;;;;5.50;2.50;;;;;;;19.65;50.92;98076.17;105350;1287;22707;-83
2022/07/15 10:29:55;;;;;;;9.40;2.50;;;;;;;19.71;50.04;98078.59;105307;1287;22728;-83
2022/07/15 10:32:23;;;;;;;6.20;2.70;;;;;;;19.51;49.82;98076.52;105298;1287;24427;-82
2022/07/15 10:34:51;;;;;;;5.70;2.90;;;;;;;19.44;50.34;98076.13;105356;1287;25265;-83
2022/07/15 10:37:19;;;;;;;8.10;2.70;;;;;;;19.29;50.45;98074.73;105037;1288;22580;-83
2022/07/15 10:40:06;;;;;;;4.70;2.40;;;;;;;19.10;50.47;98077.61;105080;1287;25398;-83
2022/07/15 10:42:58;;;;;;;4.30;2.30;;;;;;;19.00;49.77;98079.98;105304;1287;22714;-83
2022/07/15 10:45:26;;;;;;;3.30;1.90;;;;;;;19.07;50.08;98072.77;105245;1287;22735;-83
2022/07/15 10:48:28;;;;;;;3.60;2.10;;;;;;;19.32;50.26;98070.84;105333;1287;24115;-85
2022/07/15 10:50:57;;;;;;;7.00;2.10;;;;;;;19.38;48.15;98076.66;105068;1287;23354;-82
2022/07/15 10:53:27;;;;;;;6.80;2.20;;;;;;;19.13;48.06;98083.52;105196;1287;25469;-83
2022/07/15 10:55:55;;;;;;;5.20;2.10;;;;;;;18.93;48.21;98079.27;105073;1287;22741;-83
2022/07/15 10:58:23;;;;;;;3.80;2.10;;;;;;;19.12;48.57;98079.23;105186;1287;22682;-84
2022/07/15 11:00:52;;;;;;;3.00;1.90;;;;;;;19.48;48.32;98075.43;105252;1287;25473;-82
2022/07/15 11:03:20;;;;;;;5.60;2.00;;;;;;;19.76;48.07;98076.99;105256;1287;22721;-83
2022/07/15 11:05:51;;;;;;;5.40;2.00;;;;;;;19.94;46.69;98081.64;105044;1288;24753;-82
2022/07/15 11:08:31;;;;;;;3.80;1.90;;;;;;;20.03;46.37;98079.80;105374;1287;25384;-86
2022/07/15 11:11:14;;;;;;;6.50;2.50;;;;;;;19.97;46.35;98081.06;105368;1287;24381;-84
2022/07/15 11:13:45;;;;;;;3.40;2.00;;;;;;;20.01;46.01;98088.68;105382;1287;22588;-82
2022/07/15 11:16:19;;;;;;;6.00;2.20;;;;;;;20.03;45.34;98083.02;105355;1287;22574;-82
2022/07/15 11:18:48;;;;;;;5.70;2.30;;;;;;;20.05;44.64;98081.65;105337;1287;26371;-84
2022/07/15 11:21:17;;;;;;;7.50;2.00;;;;;;;20.16;44.48;98084.16;105245;1287;22732;-83
2022/07/15 11:23:46;;;;;;;5.10;1.90;;;;;;;20.27;44.52;98086.28;105294;1287;24388;-83
2022/07/15 11:26:14;;;;;;;5.10;1.90;;;;;;;20.36;43.37;98087.09;105325;1287;22635;-82
2022/07/15 11:28:50;;;;;;;4.80;1.80;;;;;;;20.37;43.55;98080.77;105304;1287;26632;-83
2022/07/15 11:31:18;;;;;;;3.60;2.20;;;;;;;20.59;43.39;98081.19;105049;1288;24380;-84
2022/07/15 11:33:46;;;;;;;4.50;2.00;;;;;;;20.64;43.04;98088.02;105315;1287;22650;-82
2022/07/15 11:36:22;;;;;;;7.90;2.10;;;;;;;20.62;43.33;98091.54;105062;1288;23288;-83
2022/07/15 11:38:51;;;;;;;4.60;2.00;;;;;;;20.28;43.44;98098.73;105362;1287;22557;-81
2022/07/15 11:46:58;;;;;;;6.30;1.90;;;;;;;19.80;43.79;98097.02;105363;1287;22564;-83
2022/07/15 11:49:27;;;;;;;4.50;2.20;;;;;;;20.06;44.20;98090.66;105279;1287;25265;-83